Seiyo Maru — JI3719 — position and weather

sailwx.info

Track history (hours):
 
Tides and Currents Weather Stations Pressure Air Temp Water Temp Dewpoint Dewpoint Depression Visibility Wind Speed Wind Dir Waves Ship Positions

Seiyo Maru

Last reported at 2018-Jan-11 07:48 UTC. Time now 2018-Jan-21 20:26 UTC.
Position N 34°39' E 135°26'.
Warning: this ship's position is 10 days out of date.

Length 44 m; draft 4.5 m.

Type: Tug. MMSI: 431301711.

Date/timePositionNaut miles runAvg speedWind from/ knotsBaromVisibWave heightAir tempDewpointWater temp
2018-Jan-11 07:48N 34°39' E 135°26'2 6.7
2018-Jan-11 07:31N 34°38' E 135°24'4 7.9
2018-Jan-11 07:01N 34°35' E 135°23'2 4.4
2018-Jan-11 06:30N 34°34' E 135°25'0 0.2
2018-Jan-11 06:00N 34°34' E 135°25'0 0.1
2018-Jan-11 05:30N 34°34' E 135°25'1 1.3
2018-Jan-11 05:00N 34°33' E 135°25'0 0.2
2018-Jan-11 04:30N 34°33' E 135°25'0 0.7
2018-Jan-11 04:01N 34°33' E 135°25'0 0.2
2018-Jan-11 03:31N 34°33' E 135°25'0 0.1
2018-Jan-11 03:00N 34°33' E 135°25'1 2.0
2018-Jan-11 02:30N 34°33' E 135°24'3 6.3
2018-Jan-11 02:01N 34°34' E 135°20'0 0.6
2018-Jan-11 01:30N 34°34' E 135°20'0 0.1
2018-Jan-11 01:01N 34°34' E 135°20'0 0.2
2018-Jan-11 00:30N 34°34' E 135°20'4 7.2
2018-Jan-11 00:01N 34°37' E 135°22'3 5.3
2018-Jan-10 23:31N 34°37' E 135°26'1 1.9
2018-Jan-10 23:01N 34°37' E 135°24'0 0.8
2018-Jan-10 22:31N 34°38' E 135°24'2 4.4
2018-Jan-10 22:01N 34°39' E 135°26'0 0.0
2018-Jan-10 14:14N 34°39' E 135°26'2 7.0
2018-Jan-10 14:01N 34°39' E 135°24'0 0.8
2018-Jan-10 13:31N 34°39' E 135°24'0 0.3
2018-Jan-10 13:00N 34°39' E 135°24'2 0.3
2018-Jan-10 07:26N 34°39' E 135°26'0 0.0
2018-Jan-10 07:00N 34°39' E 135°26'0 0.0
2018-Jan-10 06:30N 34°39' E 135°26'0 0.0
2018-Jan-10 06:00N 34°39' E 135°26'0 0.0
2018-Jan-10 05:30N 34°39' E 135°26'0 0.0
2018-Jan-10 05:00N 34°39' E 135°26'0 0.0
2018-Jan-10 04:30N 34°39' E 135°26'0 1.0
2018-Jan-10 04:00N 34°39' E 135°26'0 0.0
2018-Jan-10 03:30N 34°39' E 135°26'0 0.0
2018-Jan-10 03:00N 34°39' E 135°26'4 7.6
2018-Jan-10 02:30N 34°36' E 135°23'3 6.2
2018-Jan-10 02:00N 34°34' E 135°25'0 0.4
2018-Jan-10 01:30N 34°33' E 135°25'3 5.1
2018-Jan-10 01:00N 34°34' E 135°22'1 1.6
2018-Jan-10 00:30N 34°35' E 135°21'0 0.4
2018-Jan-10 00:00N 34°35' E 135°22'3 6.9
2018-Jan-09 23:30N 34°38' E 135°23'1 1.9
2018-Jan-09 23:00N 34°39' E 135°24'1 2.3
2018-Jan-09 22:31N 34°38' E 135°23'3 5.9
2018-Jan-09 22:00N 34°39' E 135°26'0 0.0
2018-Jan-09 21:30N 34°39' E 135°26'0 0.0
2018-Jan-08 08:25N 34°39' E 135°26'4 8.9
2018-Jan-08 08:00N 34°37' E 135°23'3 6.6
2018-Jan-08 07:30N 34°33' E 135°24'2 3.1
2018-Jan-08 07:00N 34°33' E 135°25'0 0.1
2018-Jan-08 06:31N 34°33' E 135°25'0 0.1
2018-Jan-08 06:00N 34°33' E 135°25'3 6.1
2018-Jan-08 05:30N 34°35' E 135°24'0 0.7
2018-Jan-08 05:00N 34°36' E 135°24'0 0.0
2018-Jan-08 04:30N 34°36' E 135°24'3 5.5
2018-Jan-08 04:00N 34°33' E 135°25'0 0.1
2018-Jan-08 03:30N 34°33' E 135°25'0 0.8
2018-Jan-08 03:01N 34°33' E 135°24'3 6.8
2018-Jan-08 02:30N 34°33' E 135°20'0 0.6
2018-Jan-08 02:00N 34°34' E 135°20'3 6.9
2018-Jan-08 01:30N 34°36' E 135°24'0 0.4
2018-Jan-08 01:00N 34°36' E 135°24'  
Track history (hours):
 
Tides and Currents Weather Stations Pressure Air Temp Water Temp Dewpoint Dewpoint Depression Visibility Wind Speed Wind Dir Waves Ship Positions

Seiyo Maru

Last reported at 2018-Jan-11 07:48 UTC. Time now 2018-Jan-21 20:26 UTC.
Position N 34°39' E 135°26'.
Warning: this ship's position is 10 days out of date.

Length 44 m; draft 4.5 m.

Type: Tug. MMSI: 431301711.

Date/timePositionNaut miles runAvg speedWind from/ knotsBaromVisibWave heightAir tempDewpointWater temp
2018-Jan-11 07:48N 34°39' E 135°26'2 6.7
2018-Jan-11 07:31N 34°38' E 135°24'4 7.9
2018-Jan-11 07:01N 34°35' E 135°23'2 4.4
2018-Jan-11 06:30N 34°34' E 135°25'0 0.2
2018-Jan-11 06:00N 34°34' E 135°25'0 0.1
2018-Jan-11 05:30N 34°34' E 135°25'1 1.3
2018-Jan-11 05:00N 34°33' E 135°25'0 0.2
2018-Jan-11 04:30N 34°33' E 135°25'0 0.7
2018-Jan-11 04:01N 34°33' E 135°25'0 0.2
2018-Jan-11 03:31N 34°33' E 135°25'0 0.1
2018-Jan-11 03:00N 34°33' E 135°25'1 2.0
2018-Jan-11 02:30N 34°33' E 135°24'3 6.3
2018-Jan-11 02:01N 34°34' E 135°20'0 0.6
2018-Jan-11 01:30N 34°34' E 135°20'0 0.1
2018-Jan-11 01:01N 34°34' E 135°20'0 0.2
2018-Jan-11 00:30N 34°34' E 135°20'4 7.2
2018-Jan-11 00:01N 34°37' E 135°22'3 5.3
2018-Jan-10 23:31N 34°37' E 135°26'1 1.9
2018-Jan-10 23:01N 34°37' E 135°24'0 0.8
2018-Jan-10 22:31N 34°38' E 135°24'2 4.4
2018-Jan-10 22:01N 34°39' E 135°26'0 0.0
2018-Jan-10 14:14N 34°39' E 135°26'2 7.0
2018-Jan-10 14:01N 34°39' E 135°24'0 0.8
2018-Jan-10 13:31N 34°39' E 135°24'0 0.3
2018-Jan-10 13:00N 34°39' E 135°24'2 0.3
2018-Jan-10 07:26N 34°39' E 135°26'0 0.0
2018-Jan-10 07:00N 34°39' E 135°26'0 0.0
2018-Jan-10 06:30N 34°39' E 135°26'0 0.0
2018-Jan-10 06:00N 34°39' E 135°26'0 0.0
2018-Jan-10 05:30N 34°39' E 135°26'0 0.0
2018-Jan-10 05:00N 34°39' E 135°26'0 0.0
2018-Jan-10 04:30N 34°39' E 135°26'0 1.0
2018-Jan-10 04:00N 34°39' E 135°26'0 0.0
2018-Jan-10 03:30N 34°39' E 135°26'0 0.0
2018-Jan-10 03:00N 34°39' E 135°26'4 7.6
2018-Jan-10 02:30N 34°36' E 135°23'3 6.2
2018-Jan-10 02:00N 34°34' E 135°25'0 0.4
2018-Jan-10 01:30N 34°33' E 135°25'3 5.1
2018-Jan-10 01:00N 34°34' E 135°22'1 1.6
2018-Jan-10 00:30N 34°35' E 135°21'0 0.4
2018-Jan-10 00:00N 34°35' E 135°22'3 6.9
2018-Jan-09 23:30N 34°38' E 135°23'1 1.9
2018-Jan-09 23:00N 34°39' E 135°24'1 2.3
2018-Jan-09 22:31N 34°38' E 135°23'3 5.9
2018-Jan-09 22:00N 34°39' E 135°26'0 0.0
2018-Jan-09 21:30N 34°39' E 135°26'0 0.0
2018-Jan-08 08:25N 34°39' E 135°26'4 8.9
2018-Jan-08 08:00N 34°37' E 135°23'3 6.6
2018-Jan-08 07:30N 34°33' E 135°24'2 3.1
2018-Jan-08 07:00N 34°33' E 135°25'0 0.1
2018-Jan-08 06:31N 34°33' E 135°25'0 0.1
2018-Jan-08 06:00N 34°33' E 135°25'3 6.1
2018-Jan-08 05:30N 34°35' E 135°24'0 0.7
2018-Jan-08 05:00N 34°36' E 135°24'0 0.0
2018-Jan-08 04:30N 34°36' E 135°24'3 5.5
2018-Jan-08 04:00N 34°33' E 135°25'0 0.1
2018-Jan-08 03:30N 34°33' E 135°25'0 0.8
2018-Jan-08 03:01N 34°33' E 135°24'3 6.8
2018-Jan-08 02:30N 34°33' E 135°20'0 0.6
2018-Jan-08 02:00N 34°34' E 135°20'3 6.9
2018-Jan-08 01:30N 34°36' E 135°24'0 0.4
2018-Jan-08 01:00N 34°36' E 135°24'  

Dump ship's entire track history